createdAt,value
2022-12-28T00:01:17.843Z,9.55
2022-12-28T00:03:47.446Z,9.13
2022-12-28T00:06:16.395Z,9.70
2022-12-28T00:08:44.721Z,7.18
2022-12-28T00:11:20.320Z,8.18
2022-12-28T00:13:57.838Z,6.85
2022-12-28T00:16:28.366Z,8.15
2022-12-28T00:18:57.123Z,9.75
2022-12-28T00:21:25.080Z,7.40
2022-12-28T00:23:53.653Z,7.53
2022-12-28T00:26:25.392Z,6.15
2022-12-28T00:28:56.842Z,7.60
2022-12-28T00:31:29.277Z,7.03
2022-12-28T00:33:57.174Z,6.65
2022-12-28T00:36:25.015Z,6.97
2022-12-28T00:39:12.770Z,9.82
2022-12-28T00:41:40.517Z,5.43
2022-12-28T00:44:08.281Z,7.60
2022-12-28T00:46:37.435Z,5.60
2022-12-28T00:49:05.318Z,6.45
2022-12-28T00:51:33.055Z,7.25
2022-12-28T00:54:00.828Z,6.15
2022-12-28T00:56:28.606Z,4.88
2022-12-28T00:58:58.315Z,6.18
2022-12-28T01:01:27.808Z,4.45
2022-12-28T01:03:58.316Z,4.47
2022-12-28T01:06:26.446Z,6.05
2022-12-28T01:08:54.210Z,5.63
2022-12-28T01:11:24.104Z,4.88
2022-12-28T01:13:53.366Z,4.50
2022-12-28T01:16:23.596Z,5.22
2022-12-28T01:18:53.743Z,7.15
2022-12-28T01:21:24.283Z,4.45
2022-12-28T01:23:55.356Z,4.30
2022-12-28T01:26:23.801Z,4.80
2022-12-28T01:28:51.795Z,4.53
2022-12-28T01:31:21.953Z,4.38
2022-12-28T01:33:50.358Z,3.83
2022-12-28T01:36:20.133Z,4.88
2022-12-28T01:38:53.315Z,4.43
2022-12-28T01:41:21.928Z,5.90
2022-12-28T01:44:43.225Z,5.47
2022-12-28T01:47:15.734Z,3.80
2022-12-28T01:49:49.286Z,3.55
2022-12-28T01:52:22.203Z,3.67
2022-12-28T01:54:53.913Z,4.55
2022-12-28T01:57:25.778Z,4.43
2022-12-28T01:59:58.024Z,4.28
2022-12-28T02:04:54.384Z,5.88
2022-12-28T02:07:31.139Z,4.10
2022-12-28T02:10:44.067Z,4.47
2022-12-28T02:12:48.342Z,3.08
2022-12-28T02:15:22.786Z,3.30
2022-12-28T02:17:51.239Z,4.15
2022-12-28T02:20:19.162Z,3.63
2022-12-28T02:23:24.938Z,3.00
2022-12-28T02:26:25.694Z,2.97
2022-12-28T02:29:28.610Z,2.45
2022-12-28T02:32:04.752Z,2.35
2022-12-28T02:34:39.981Z,2.63
2022-12-28T02:37:15.978Z,2.45
2022-12-28T02:39:48.339Z,2.28
2022-12-28T02:42:18.812Z,4.53
2022-12-28T02:45:05.636Z,2.15
2022-12-28T02:47:51.012Z,2.70
2022-12-28T02:50:19.189Z,3.78
2022-12-28T02:53:06.696Z,1.95
2022-12-28T02:56:10.062Z,2.92
2022-12-28T02:59:19.799Z,2.63
2022-12-28T03:02:15.545Z,2.40
2022-12-28T03:04:59.137Z,3.80
2022-12-28T03:07:50.638Z,2.03
2022-12-28T03:10:24.248Z,2.55
2022-12-28T03:12:59.438Z,1.98
2022-12-28T03:15:31.565Z,1.70
2022-12-28T03:18:24.380Z,2.40
2022-12-28T03:21:11.786Z,1.98
2022-12-28T03:24:00.788Z,2.22
2022-12-28T03:26:48.382Z,2.00
2022-12-28T03:29:36.304Z,2.50
2022-12-28T03:32:04.414Z,2.10
2022-12-28T03:34:33.900Z,3.28
2022-12-28T03:37:11.391Z,2.00
2022-12-28T03:39:44.186Z,2.38
2022-12-28T03:42:37.100Z,3.25
2022-12-28T03:45:10.522Z,1.50
2022-12-28T03:47:41.583Z,1.48
2022-12-28T03:50:11.743Z,3.22
2022-12-28T03:52:39.717Z,1.77
2022-12-28T03:55:07.935Z,1.48
2022-12-28T03:57:35.732Z,1.30
2022-12-28T04:00:03.657Z,1.23
2022-12-28T04:02:31.574Z,1.48
2022-12-28T04:04:59.393Z,2.03
2022-12-28T04:07:28.574Z,2.03
2022-12-28T04:09:56.302Z,1.45
2022-12-28T04:12:24.069Z,1.15
2022-12-28T04:14:51.808Z,1.60
2022-12-28T04:17:19.557Z,1.20
2022-12-28T04:19:47.295Z,2.03
2022-12-28T04:22:15.048Z,1.45
2022-12-28T04:24:44.111Z,1.85
2022-12-28T04:27:11.862Z,1.85
2022-12-28T04:29:39.594Z,1.35
2022-12-28T04:32:07.399Z,1.00
2022-12-28T04:34:35.134Z,0.95
2022-12-28T04:37:02.887Z,1.20
2022-12-28T04:39:55.891Z,1.15
2022-12-28T04:42:19.672Z,0.80
2022-12-28T04:44:47.404Z,0.70
2022-12-28T04:47:15.165Z,1.20
2022-12-28T04:49:42.890Z,2.03
2022-12-28T04:52:10.652Z,0.90
2022-12-28T04:54:38.456Z,0.80
2022-12-28T04:57:06.675Z,1.00
2022-12-28T04:59:35.790Z,0.80
2022-12-28T05:02:03.583Z,2.40
2022-12-28T05:04:31.380Z,2.30
2022-12-28T05:06:59.147Z,1.10
2022-12-28T05:09:26.886Z,0.70
2022-12-28T05:11:54.983Z,1.00
2022-12-28T05:14:22.702Z,1.02
2022-12-28T05:16:52.597Z,0.82
2022-12-28T05:19:20.498Z,1.15
2022-12-28T05:21:48.229Z,1.52
2022-12-28T05:24:15.973Z,0.77
2022-12-28T05:26:43.751Z,1.08
2022-12-28T05:29:11.581Z,1.17
2022-12-28T05:31:39.429Z,1.27
2022-12-28T05:34:08.615Z,0.98
2022-12-28T05:36:39.728Z,1.73
2022-12-28T05:39:08.319Z,1.05
2022-12-28T05:41:36.129Z,1.25
2022-12-28T05:44:04.046Z,0.80
2022-12-28T05:46:33.472Z,1.65
2022-12-28T05:49:01.731Z,4.00
2022-12-28T05:51:32.999Z,2.85
2022-12-28T05:54:04.293Z,3.55
2022-12-28T05:56:33.379Z,3.92
2022-12-28T05:59:02.648Z,2.28
2022-12-28T06:01:32.681Z,4.30
2022-12-28T06:04:02.673Z,1.40
2022-12-28T06:06:33.492Z,1.50
2022-12-28T06:09:01.716Z,1.95
2022-12-28T06:11:30.387Z,1.67
2022-12-28T06:13:59.859Z,1.10
2022-12-28T06:16:29.884Z,1.58
2022-12-28T06:18:57.869Z,1.27
2022-12-28T06:21:27.985Z,1.55
2022-12-28T06:23:58.920Z,1.20
2022-12-28T06:26:28.021Z,1.42
2022-12-28T06:28:55.908Z,2.30
2022-12-28T06:31:25.038Z,1.27
2022-12-28T06:33:54.631Z,1.90
2022-12-28T06:36:24.365Z,1.35
2022-12-28T06:38:55.480Z,1.10
2022-12-28T06:41:25.866Z,1.50
2022-12-28T06:43:54.201Z,1.52
2022-12-28T06:46:24.180Z,1.10
2022-12-28T06:48:52.356Z,2.40
2022-12-28T06:51:22.089Z,0.98
2022-12-28T06:53:51.425Z,1.00
2022-12-28T06:56:20.972Z,1.52
2022-12-28T06:58:52.700Z,1.30
2022-12-28T07:01:25.768Z,2.25
2022-12-28T07:03:55.760Z,1.17
2022-12-28T07:06:25.693Z,1.05
2022-12-28T07:08:58.956Z,0.93
2022-12-28T07:11:26.894Z,1.77
2022-12-28T07:13:56.963Z,1.30
2022-12-28T07:16:26.971Z,1.10
2022-12-28T07:18:55.072Z,0.75
2022-12-28T07:21:24.744Z,1.38
2022-12-28T07:23:54.991Z,0.73
2022-12-28T07:26:25.374Z,1.08
2022-12-28T07:28:55.565Z,0.90
2022-12-28T07:31:26.736Z,1.13
2022-12-28T07:33:56.382Z,1.02
2022-12-28T07:36:25.434Z,1.95
2022-12-28T07:38:53.824Z,1.42
2022-12-28T07:41:23.766Z,1.42
2022-12-28T07:43:52.022Z,2.22
2022-12-28T07:46:21.995Z,2.05
2022-12-28T07:48:52.310Z,1.50
2022-12-28T07:51:22.300Z,2.10
2022-12-28T07:53:51.860Z,1.25
2022-12-28T07:56:20.514Z,3.83
2022-12-28T08:01:19.079Z,3.42
2022-12-28T08:03:47.011Z,1.58
2022-12-28T08:06:20.021Z,1.25
2022-12-28T08:08:49.825Z,1.30
2022-12-28T08:11:19.968Z,1.20
2022-12-28T08:13:49.901Z,1.20
2022-12-28T08:16:19.449Z,1.50
2022-12-28T08:18:48.019Z,1.02
2022-12-28T08:21:19.516Z,1.67
2022-12-28T08:23:47.962Z,4.32
2022-12-28T08:26:18.126Z,3.35
2022-12-28T08:28:47.713Z,2.60
2022-12-28T08:31:17.461Z,1.42
2022-12-28T08:33:45.656Z,1.55
2022-12-28T08:36:13.522Z,3.58
2022-12-28T08:38:43.684Z,3.33
2022-12-28T08:41:14.827Z,2.83
2022-12-28T08:43:42.742Z,3.60
2022-12-28T08:46:14.860Z,5.35
2022-12-28T08:48:43.205Z,2.80
2022-12-28T08:51:12.765Z,4.53
2022-12-28T08:53:42.783Z,4.40
2022-12-28T08:56:13.109Z,3.00
2022-12-28T08:58:43.034Z,3.75
2022-12-28T09:01:13.214Z,3.35
2022-12-28T09:03:43.548Z,1.20
2022-12-28T09:06:13.393Z,1.70
2022-12-28T09:08:56.802Z,2.22
2022-12-28T09:11:30.764Z,1.70
2022-12-28T09:13:58.598Z,2.22
2022-12-28T09:16:28.890Z,1.80
2022-12-28T09:18:59.090Z,2.35
2022-12-28T09:21:29.787Z,1.30
2022-12-28T09:23:58.938Z,1.33
2022-12-28T09:26:28.870Z,1.90
2022-12-28T09:28:58.045Z,2.67
2022-12-28T09:31:28.123Z,2.38
2022-12-28T09:36:49.566Z,2.38
2022-12-28T09:39:20.781Z,1.77
2022-12-28T09:41:53.481Z,3.13
2022-12-28T09:44:38.330Z,1.77
2022-12-28T09:47:17.471Z,1.02
2022-12-28T09:49:50.523Z,1.58
2022-12-28T09:52:27.849Z,1.33
2022-12-28T09:55:11.714Z,2.05
2022-12-28T09:57:43.005Z,1.50
2022-12-28T10:00:18.252Z,2.38
2022-12-28T10:02:51.634Z,2.50
2022-12-28T10:05:21.686Z,1.83
2022-12-28T10:07:49.551Z,1.38
2022-12-28T10:10:21.423Z,1.10
2022-12-28T10:12:51.871Z,0.77
2022-12-28T10:15:20.245Z,1.10
2022-12-28T10:17:48.036Z,2.38
2022-12-28T10:20:18.163Z,2.15
2022-12-28T10:22:50.472Z,2.72
2022-12-28T10:27:49.377Z,1.65
2022-12-28T10:30:19.762Z,4.32
2022-12-28T10:32:58.076Z,1.02
2022-12-28T10:35:39.950Z,2.90
2022-12-28T10:38:20.561Z,1.38
2022-12-28T10:40:59.768Z,1.08
2022-12-28T10:43:30.695Z,1.77
2022-12-28T10:46:00.086Z,2.42
2022-12-28T10:48:31.634Z,1.30
2022-12-28T10:51:02.779Z,1.60
2022-12-28T10:53:33.404Z,1.70
2022-12-28T10:56:28.087Z,2.72
2022-12-28T10:59:17.404Z,1.77
2022-12-28T11:01:45.370Z,1.05
2022-12-28T11:04:18.930Z,2.67
2022-12-28T11:06:53.611Z,2.90
2022-12-28T11:09:24.307Z,2.72
2022-12-28T11:11:55.190Z,1.73
2022-12-28T11:14:32.167Z,1.25
2022-12-28T11:17:15.188Z,2.35
2022-12-28T11:19:43.318Z,0.77
2022-12-28T11:22:12.184Z,3.63
2022-12-28T11:24:40.714Z,4.15
2022-12-28T11:27:14.439Z,3.13
2022-12-28T11:29:45.842Z,1.00
2022-12-28T11:32:19.764Z,2.72
2022-12-28T11:34:48.005Z,1.20
2022-12-28T11:37:16.656Z,1.45
2022-12-28T11:39:46.424Z,1.13
2022-12-28T11:42:59.192Z,1.35
2022-12-28T11:45:52.157Z,1.30
2022-12-28T11:48:39.747Z,2.22
2022-12-28T11:51:17.106Z,0.93
2022-12-28T11:53:54.092Z,1.23
2022-12-28T11:56:22.683Z,2.67
2022-12-28T11:59:20.441Z,0.77
2022-12-28T12:01:52.117Z,5.40
2022-12-28T12:04:36.649Z,2.70
2022-12-28T12:07:22.747Z,2.15
2022-12-28T12:10:30.347Z,0.70
2022-12-28T12:12:58.410Z,2.30
2022-12-28T12:15:34.878Z,1.20
2022-12-28T12:18:07.297Z,3.47
2022-12-28T12:20:49.911Z,2.55
2022-12-28T12:23:29.619Z,2.15
2022-12-28T12:26:00.764Z,2.33
2022-12-28T12:28:35.515Z,1.10
2022-12-28T12:31:07.626Z,1.20
2022-12-28T12:33:41.098Z,5.22
2022-12-28T12:36:24.462Z,2.03
2022-12-28T12:39:18.842Z,1.80
2022-12-28T12:41:56.250Z,3.47
2022-12-28T12:44:34.378Z,3.05
2022-12-28T12:47:35.269Z,2.38
2022-12-28T12:50:32.519Z,1.20
2022-12-28T12:53:07.123Z,4.43
2022-12-28T12:55:54.891Z,1.55
2022-12-28T12:58:27.815Z,1.77
2022-12-28T13:01:19.781Z,1.40
2022-12-28T13:03:49.708Z,0.95
2022-12-28T13:06:22.792Z,4.03
2022-12-28T13:08:54.035Z,1.20
2022-12-28T13:11:22.607Z,2.08
2022-12-28T13:13:53.617Z,1.23
2022-12-28T13:16:23.444Z,1.30
2022-12-28T13:18:56.317Z,2.10
2022-12-28T13:21:26.816Z,2.10
2022-12-28T13:23:55.253Z,0.77
2022-12-28T13:26:28.875Z,1.38
2022-12-28T13:29:00.136Z,1.35
2022-12-28T13:31:35.894Z,1.65
2022-12-28T13:34:05.960Z,3.20
2022-12-28T13:36:35.128Z,0.70
2022-12-28T13:39:12.868Z,2.22
2022-12-28T13:41:49.198Z,1.95
2022-12-28T13:44:37.802Z,2.25
2022-12-28T13:47:15.870Z,3.80
2022-12-28T13:49:47.975Z,0.82
2022-12-28T13:52:21.709Z,2.88
2022-12-28T13:54:53.563Z,3.45
2022-12-28T14:00:12.550Z,1.08
2022-12-28T14:02:41.973Z,1.60
2022-12-28T14:05:17.441Z,1.98
2022-12-28T14:07:48.025Z,2.25
2022-12-28T14:10:16.444Z,2.17
2022-12-28T14:12:45.517Z,3.40
2022-12-28T14:15:14.506Z,2.35
2022-12-28T14:17:43.232Z,1.77
2022-12-28T14:20:12.094Z,1.77
2022-12-28T14:22:41.029Z,1.75
2022-12-28T14:25:12.573Z,2.78
2022-12-28T14:27:43.376Z,1.40
2022-12-28T14:30:24.062Z,1.23
2022-12-28T14:32:52.877Z,4.05
2022-12-28T14:35:23.317Z,2.05
2022-12-28T14:37:54.293Z,1.50
2022-12-28T14:40:32.575Z,4.57
2022-12-28T14:43:07.383Z,2.97
2022-12-28T14:46:05.890Z,3.58
2022-12-28T14:48:37.159Z,3.40
2022-12-28T14:51:23.503Z,3.38
2022-12-28T14:54:16.581Z,2.47
2022-12-28T14:56:48.529Z,2.83
2022-12-28T14:59:23.205Z,1.58
2022-12-28T15:01:51.105Z,1.25
2022-12-28T15:04:36.534Z,2.90
2022-12-28T15:07:05.137Z,1.80
2022-12-28T15:09:32.900Z,1.88
2022-12-28T15:12:17.742Z,1.65
2022-12-28T15:14:45.915Z,5.88
2022-12-28T15:17:13.799Z,3.88
2022-12-28T15:19:42.995Z,6.03
2022-12-28T15:22:10.865Z,5.78
2022-12-28T15:24:41.343Z,3.60
2022-12-28T15:27:10.164Z,1.75
2022-12-28T15:30:04.503Z,2.30
2022-12-28T15:32:27.060Z,8.38
2022-12-28T15:34:54.853Z,6.10
2022-12-28T15:37:22.652Z,2.03
2022-12-28T15:39:50.491Z,2.80
2022-12-28T15:42:18.262Z,4.22
2022-12-28T15:44:48.531Z,3.00
2022-12-28T15:47:16.333Z,2.10
2022-12-28T15:49:44.113Z,1.45
2022-12-28T15:52:11.891Z,1.70
2022-12-28T15:54:45.301Z,0.85
2022-12-28T15:57:15.678Z,2.83
2022-12-28T15:59:43.512Z,2.70
2022-12-28T16:02:13.260Z,1.92
2022-12-28T16:04:41.212Z,1.98
2022-12-28T16:07:09.048Z,2.13
2022-12-28T16:09:36.869Z,1.60
2022-12-28T16:12:04.837Z,1.65
2022-12-28T16:14:32.993Z,2.85
2022-12-28T16:17:00.844Z,1.88
2022-12-28T16:19:30.058Z,2.50
2022-12-28T16:21:57.968Z,2.38
2022-12-28T16:24:25.799Z,2.40
2022-12-28T16:26:53.571Z,3.00
2022-12-28T16:29:21.557Z,2.08
2022-12-28T16:31:49.363Z,1.95
2022-12-28T16:34:18.964Z,3.75
2022-12-28T16:36:48.566Z,4.28
2022-12-28T16:39:18.093Z,2.10
2022-12-28T16:41:46.006Z,6.70
2022-12-28T16:44:16.402Z,2.63
2022-12-28T16:46:44.482Z,4.47
2022-12-28T16:49:12.664Z,2.10
2022-12-28T16:51:42.394Z,2.47
2022-12-28T16:54:15.134Z,3.60
2022-12-28T16:56:42.967Z,1.65
2022-12-28T16:59:15.170Z,3.20
2022-12-28T17:01:44.171Z,3.15
2022-12-28T17:04:13.323Z,2.60
2022-12-28T17:06:41.984Z,3.45
2022-12-28T17:09:11.391Z,2.70
2022-12-28T17:11:39.148Z,2.63
2022-12-28T17:14:10.296Z,3.13
2022-12-28T17:16:38.777Z,2.90
2022-12-28T17:19:06.973Z,6.65
2022-12-28T17:21:35.969Z,4.07
2022-12-28T17:24:03.815Z,5.03
2022-12-28T17:26:32.978Z,6.45
2022-12-28T17:29:01.115Z,3.67
2022-12-28T17:31:29.039Z,6.00
2022-12-28T17:33:58.709Z,6.13
2022-12-28T17:36:27.439Z,5.05
2022-12-28T17:38:55.273Z,3.10
2022-12-28T17:41:25.100Z,3.78
2022-12-28T17:43:58.766Z,3.95
2022-12-28T17:46:28.687Z,4.07
2022-12-28T17:48:58.124Z,3.58
2022-12-28T17:51:26.576Z,4.82
2022-12-28T17:53:59.636Z,5.63
2022-12-28T17:56:28.747Z,7.72
2022-12-28T17:58:59.482Z,3.53
2022-12-28T18:01:28.952Z,3.10
2022-12-28T18:03:56.899Z,3.90
2022-12-28T18:06:25.514Z,3.35
2022-12-28T18:08:53.322Z,3.63
2022-12-28T18:11:21.195Z,4.20
2022-12-28T18:13:49.528Z,3.22
2022-12-28T18:16:21.138Z,4.32
2022-12-28T18:18:49.145Z,4.43
2022-12-28T18:21:21.973Z,3.15
2022-12-28T18:23:52.503Z,3.42
2022-12-28T18:26:22.787Z,4.65
2022-12-28T18:28:50.717Z,4.47
2022-12-28T18:31:20.678Z,3.28
2022-12-28T18:33:48.652Z,3.58
2022-12-28T18:36:19.200Z,4.07
2022-12-28T18:38:48.180Z,3.28
2022-12-28T18:41:18.357Z,3.80
2022-12-28T18:43:48.678Z,3.22
2022-12-28T18:46:16.614Z,4.55
2022-12-28T18:48:46.889Z,2.67
2022-12-28T18:51:23.888Z,2.05
2022-12-28T18:53:51.704Z,2.75
2022-12-28T18:56:22.930Z,2.28
2022-12-28T18:58:52.744Z,5.40
2022-12-28T19:04:17.865Z,2.75
2022-12-28T19:06:46.144Z,3.92
2022-12-28T19:09:14.468Z,4.63
2022-12-28T19:11:42.707Z,3.50
2022-12-28T19:14:13.640Z,4.20
2022-12-28T19:16:51.936Z,4.03
2022-12-28T19:19:38.404Z,4.35
2022-12-28T19:22:06.194Z,4.82
2022-12-28T19:24:33.987Z,3.47
2022-12-28T19:27:01.767Z,3.60
2022-12-28T19:29:33.847Z,3.72
2022-12-28T19:32:01.624Z,2.53
2022-12-28T19:34:30.794Z,4.00
2022-12-28T19:36:58.667Z,4.75
2022-12-28T19:39:26.488Z,3.17
2022-12-28T19:41:59.529Z,4.57
2022-12-28T19:44:27.319Z,3.28
2022-12-28T19:46:55.291Z,3.72
2022-12-28T19:49:23.164Z,3.78
2022-12-28T19:51:52.259Z,2.38
2022-12-28T19:54:20.162Z,2.33
2022-12-28T19:56:47.937Z,4.75
2022-12-28T19:59:15.757Z,2.63
2022-12-28T20:01:43.631Z,4.38
2022-12-28T20:04:14.026Z,3.33
2022-12-28T20:06:43.483Z,3.38
2022-12-28T20:09:13.749Z,5.45
2022-12-28T20:11:41.875Z,3.65
2022-12-28T20:14:14.351Z,3.15
2022-12-28T20:16:43.374Z,5.47
2022-12-28T20:19:12.300Z,3.83
2022-12-28T20:21:41.471Z,4.20
2022-12-28T20:24:14.804Z,5.68
2022-12-28T20:26:42.636Z,4.68
2022-12-28T20:29:10.571Z,4.68
2022-12-28T20:31:45.708Z,4.25
2022-12-28T20:34:15.393Z,7.93
2022-12-28T20:36:43.232Z,4.90
2022-12-28T20:39:14.084Z,6.57
2022-12-28T20:42:02.460Z,4.43
2022-12-28T20:44:33.923Z,7.25
2022-12-28T20:47:02.974Z,3.72
2022-12-28T20:49:31.553Z,5.10
2022-12-28T20:51:59.455Z,5.97
2022-12-28T20:54:30.416Z,5.25
2022-12-28T20:56:58.219Z,4.32
2022-12-28T20:59:27.808Z,5.32
2022-12-28T21:01:55.869Z,3.95
2022-12-28T21:04:24.831Z,7.20
2022-12-28T21:06:52.997Z,4.22
2022-12-28T21:09:20.810Z,4.07
2022-12-28T21:11:49.923Z,5.15
2022-12-28T21:14:17.734Z,4.28
2022-12-28T21:16:45.628Z,4.90
2022-12-28T21:19:13.459Z,3.75
2022-12-28T21:21:41.948Z,4.43
2022-12-28T21:24:09.873Z,3.58
2022-12-28T21:26:40.482Z,2.80
2022-12-28T21:29:09.761Z,5.15
2022-12-28T21:31:37.613Z,4.60
2022-12-28T21:34:05.483Z,3.53
2022-12-28T21:36:33.316Z,3.83
2022-12-28T21:39:01.114Z,4.80
2022-12-28T21:41:46.731Z,3.75
2022-12-28T21:44:18.689Z,4.10
2022-12-28T21:46:47.233Z,3.90
2022-12-28T21:49:15.056Z,4.22
2022-12-28T21:51:43.043Z,3.22
2022-12-28T21:54:13.187Z,3.22
2022-12-28T21:56:42.038Z,3.00
2022-12-28T21:59:17.110Z,3.22
2022-12-28T22:02:02.561Z,2.80
2022-12-28T22:04:48.116Z,2.53
2022-12-28T22:07:18.592Z,2.90
2022-12-28T22:10:04.211Z,3.58
2022-12-28T22:12:35.307Z,1.77
2022-12-28T22:15:26.303Z,3.13
2022-12-28T22:17:56.127Z,2.38
2022-12-28T22:20:28.083Z,2.85
2022-12-28T22:22:57.865Z,3.83
2022-12-28T22:25:26.260Z,3.08
2022-12-28T22:27:54.081Z,2.97
2022-12-28T22:30:25.705Z,3.75
2022-12-28T22:32:53.523Z,2.83
2022-12-28T22:35:21.700Z,3.47
2022-12-28T22:37:49.520Z,3.42
2022-12-28T22:40:17.867Z,2.80
2022-12-28T22:42:47.944Z,2.65
2022-12-28T22:45:18.722Z,3.47
2022-12-28T22:47:48.630Z,4.20
2022-12-28T22:50:18.664Z,2.08
2022-12-28T22:52:47.165Z,2.58
2022-12-28T22:55:15.065Z,2.47
2022-12-28T22:57:43.005Z,2.47
2022-12-28T23:00:14.623Z,3.20
2022-12-28T23:02:42.934Z,3.03
2022-12-28T23:05:12.388Z,3.22
2022-12-28T23:07:40.173Z,2.95
2022-12-28T23:10:10.169Z,3.28
2022-12-28T23:12:37.985Z,2.17
2022-12-28T23:15:19.897Z,2.63
2022-12-28T23:17:49.339Z,2.90
2022-12-28T23:20:36.272Z,2.38
2022-12-28T23:23:22.203Z,2.88
2022-12-28T23:26:07.654Z,3.10
2022-12-28T23:28:36.792Z,2.17
2022-12-28T23:31:04.894Z,2.97
2022-12-28T23:33:32.755Z,2.80
2022-12-28T23:36:04.307Z,2.47
2022-12-28T23:38:33.175Z,1.83
2022-12-28T23:41:23.492Z,2.10
2022-12-28T23:43:51.282Z,1.77
2022-12-28T23:46:19.106Z,2.15
2022-12-28T23:48:46.945Z,1.88
2022-12-28T23:51:17.891Z,2.33
2022-12-28T23:53:45.748Z,1.38
2022-12-28T23:56:13.530Z,2.05
2022-12-28T23:58:41.309Z,2.45
